Terminal Aerodrome Forecast
Issued by NWS Los Angeles, CA

Home | Current Version | Previous Version | Text Only | Print | Product List | Glossary On
Versions: 1 2 3 4 5 6 7 8 9 10 11 12 13 14 15 16 17 18 19 20 21 22
000
FTUS46 KLOX 281726
TAFSMX
TAF
KSMX 281726Z 2818/2918 31006KT P6SM SKC
     FM282100 30012KT P6SM SKC
     FM290400 VRB03KT 2SM BR BKN002
     FM290700 VRB03KT 1/2SM FG VV001=

USA.gov is the U.S. government's official web portal to all federal, state and local government web resources and services.